Time;durP1;ratioP1;P1;durP2;ratioP2;P2;SDS_P1;SDS_P2;PMS_P1;PMS_P2;Temp;Humidity;BMP_temperature;BMP_pressure;BME280_temperature;BME280_humidity;BME280_pressure;Samples;Min_cycle;Max_cycle;Signal;HPM_P1;HPM_P2
2022/12/27 00:00:39;;;;;;;7.80;3.20;;;;;;;1.99;100.00;101646.06;10588636;27;20499;-79
2022/12/27 00:05:46;;;;;;;13.97;4.87;;;;;;;2.10;100.00;101658.38;10545565;28;20032;-78
2022/12/27 00:10:46;;;;;;;4.33;3.30;;;;;;;1.89;100.00;101635.41;10510211;27;20474;-79
2022/12/27 00:15:47;;;;;;;7.47;3.40;;;;;;;2.04;100.00;101654.50;10527200;28;20443;-78
2022/12/27 00:20:47;;;;;;;10.27;3.72;;;;;;;2.13;100.00;101679.72;10543994;28;20423;-79
2022/12/27 00:25:48;;;;;;;8.20;3.60;;;;;;;2.07;100.00;101692.19;10542529;28;20051;-78
2022/12/27 00:30:53;;;;;;;10.20;4.40;;;;;;;2.08;100.00;101683.00;10526015;28;20051;-79
2022/12/27 00:35:54;;;;;;;11.37;3.87;;;;;;;2.02;100.00;101686.41;10545279;28;20097;-78
2022/12/27 00:40:54;;;;;;;5.53;3.60;;;;;;;2.07;100.00;101677.72;10564086;27;20046;-79
2022/12/27 00:45:55;;;;;;;16.10;4.93;;;;;;;2.19;100.00;101693.47;10547038;28;20082;-78
2022/12/27 00:50:59;;;;;;;15.10;4.43;;;;;;;2.17;100.00;101686.50;10525658;28;20499;-79
2022/12/27 00:56:00;;;;;;;8.37;3.73;;;;;;;2.15;100.00;101678.56;10525066;28;20111;-78
2022/12/27 01:01:07;;;;;;;12.35;3.92;;;;;;;2.29;100.00;101701.38;10542657;28;20043;-79
2022/12/27 01:06:16;;;;;;;10.43;4.05;;;;;;;2.41;100.00;101704.53;10525842;28;20032;-78
2022/12/27 01:11:16;;;;;;;15.40;4.78;;;;;;;2.45;100.00;101705.84;10541839;27;20035;-78
2022/12/27 01:16:19;;;;;;;11.73;3.73;;;;;;;2.56;100.00;101708.19;10547720;27;20050;-78
2022/12/27 01:21:20;;;;;;;11.43;3.88;;;;;;;2.57;100.00;101712.56;10555321;27;20451;-78
2022/12/27 01:26:21;;;;;;;11.73;4.57;;;;;;;2.56;100.00;101724.50;10548888;27;20131;-78
2022/12/27 01:31:24;;;;;;;9.87;3.60;;;;;;;2.52;100.00;101727.72;10584624;27;20448;-79
2022/12/27 01:36:25;;;;;;;11.45;4.38;;;;;;;2.45;100.00;101730.31;10555646;28;20050;-78
2022/12/27 01:46:53;;;;;;;9.23;5.07;;;;;;;2.37;100.00;101746.69;10540299;28;20035;-79
2022/12/27 01:51:53;;;;;;;10.93;4.45;;;;;;;2.27;100.00;101740.63;10523553;28;20054;-78
2022/12/27 01:56:54;;;;;;;11.68;4.65;;;;;;;2.32;100.00;101749.09;10559980;27;20040;-78
2022/12/27 02:01:55;;;;;;;10.63;4.87;;;;;;;2.32;100.00;101755.38;10547059;28;20050;-74
2022/12/27 02:06:55;;;;;;;10.97;4.77;;;;;;;2.10;100.00;101694.53;10542072;27;20036;-78
2022/12/27 02:11:56;;;;;;;11.20;5.60;;;;;;;2.65;100.00;101746.16;10540993;28;20044;-78
2022/12/27 02:16:58;;;;;;;11.10;4.63;;;;;;;2.74;100.00;101758.69;10540915;27;20039;-78
2022/12/27 02:24:01;;;;;;;11.73;5.22;;;;;;;2.85;100.00;101777.28;10538876;28;20119;-77
2022/12/27 02:28:15;;;;;;;9.40;4.87;;;;;;;3.00;100.00;101780.91;10553459;28;20032;-78
2022/12/27 02:33:18;;;;;;;11.43;4.70;;;;;;;3.03;100.00;101785.97;10537484;28;20044;-79
2022/12/27 02:38:21;;;;;;;13.88;5.50;;;;;;;3.05;100.00;101793.97;10538440;28;20047;-78
2022/12/27 02:54:52;;;;;;;9.98;5.43;;;;;;;2.75;100.00;101803.84;10537075;28;20116;-78
2022/12/27 03:05:35;;;;;;;11.30;6.32;;;;;;;2.77;100.00;101783.66;10564515;28;20039;-79
2022/12/27 03:16:19;;;;;;;13.38;6.20;;;;;;;3.11;100.00;101804.13;10585475;27;20036;-80
2022/12/27 03:27:07;;;;;;;8.53;5.67;;;;;;;3.01;100.00;101807.09;10587870;27;20040;-78
2022/12/27 03:38:02;;;;;;;18.97;7.97;;;;;;;2.99;100.00;101791.97;10386126;28;20160;-77
2022/12/27 03:43:10;;;;;;;9.60;5.93;;;;;;;3.15;100.00;101815.50;10547356;27;20036;-78
2022/12/27 03:48:11;;;;;;;15.82;6.78;;;;;;;3.08;100.00;101803.63;10583653;27;20043;-78
2022/12/27 03:53:43;;;;;;;9.73;6.18;;;;;;;3.20;100.00;101832.97;10510250;28;20096;-78
2022/12/27 03:58:44;;;;;;;16.07;6.50;;;;;;;3.16;100.00;101839.81;10526318;28;20035;-79
2022/12/27 04:03:44;;;;;;;11.25;6.43;;;;;;;3.27;100.00;101841.25;10560556;28;20445;-78
2022/12/27 04:35:20;;;;;;;15.32;8.13;;;;;;;2.98;100.00;101864.59;10545757;28;20504;-77
2022/12/27 04:56:18;;;;;;;14.30;6.20;;;;;;;2.71;100.00;101874.09;10585706;27;20483;-77
2022/12/27 05:06:37;;;;;;;9.82;5.45;;;;;;;2.74;100.00;101878.31;10599041;27;20042;-77
2022/12/27 05:16:57;;;;;;;11.43;5.90;;;;;;;2.88;100.00;101912.09;10555661;27;20036;-78
2022/12/27 05:27:16;;;;;;;10.07;7.73;;;;;;;2.81;100.00;101911.94;10544080;28;20521;-77
2022/12/27 05:32:17;;;;;;;16.07;7.53;;;;;;;2.57;100.00;101897.44;10538326;28;20048;-78
2022/12/27 05:37:17;;;;;;;12.67;6.83;;;;;;;2.58;100.00;101918.16;10506592;28;20024;-77
2022/12/27 05:42:18;;;;;;;7.72;7.13;;;;;;;2.48;100.00;101932.97;10522800;28;20044;-78
2022/12/27 05:47:18;;;;;;;16.83;7.78;;;;;;;2.30;100.00;101923.19;10539320;28;20048;-78
2022/12/27 05:52:19;;;;;;;9.00;7.57;;;;;;;2.54;100.00;101934.97;10541648;28;20043;-79
2022/12/27 05:57:19;;;;;;;13.60;7.65;;;;;;;2.52;100.00;101953.34;10539003;28;20040;-78
2022/12/27 06:02:20;;;;;;;8.23;6.93;;;;;;;2.49;100.00;101951.81;10556835;27;20058;-77
2022/12/27 06:07:20;;;;;;;19.47;8.17;;;;;;;2.48;100.00;101950.16;10582104;27;20078;-76
2022/12/27 06:12:21;;;;;;;12.03;7.70;;;;;;;2.44;100.00;101959.66;10581078;28;20036;-76
2022/12/27 06:17:21;;;;;;;14.90;7.77;;;;;;;2.29;100.00;101947.81;10502768;28;20055;-75
2022/12/27 06:22:22;;;;;;;11.20;7.40;;;;;;;2.29;100.00;101967.66;10538114;28;20047;-76
2022/12/27 06:27:22;;;;;;;8.67;7.77;;;;;;;2.21;100.00;101973.97;10539243;28;20048;-76
2022/12/27 06:32:23;;;;;;;12.83;8.80;;;;;;;2.18;100.00;101982.47;10537158;28;20036;-75
2022/12/27 06:37:23;;;;;;;9.80;8.67;;;;;;;2.12;100.00;101976.88;10522363;28;20041;-75
2022/12/27 06:42:23;;;;;;;19.57;9.53;;;;;;;2.18;100.00;101985.19;10521945;28;20039;-69
2022/12/27 06:47:24;;;;;;;10.63;8.07;;;;;;;2.22;100.00;101999.28;10554950;28;20464;-76
2022/12/27 06:52:25;;;;;;;8.63;7.47;;;;;;;2.23;100.00;102006.38;10521061;28;20147;-76
2022/12/27 06:57:25;;;;;;;11.17;7.67;;;;;;;2.16;100.00;102022.53;10532010;28;20036;-76
2022/12/27 07:02:26;;;;;;;13.80;7.10;;;;;;;2.03;100.00;102022.22;10563122;28;20046;-75
2022/12/27 07:07:26;;;;;;;12.73;7.90;;;;;;;1.92;100.00;102030.69;10597482;28;20040;-76
2022/12/27 07:12:27;;;;;;;15.10;7.80;;;;;;;1.83;100.00;102042.56;10559970;28;20040;-75
2022/12/27 07:17:27;;;;;;;15.37;7.93;;;;;;;1.83;100.00;102045.28;10536936;28;20090;-76
2022/12/27 07:22:28;;;;;;;12.43;9.50;;;;;;;1.88;100.00;102060.06;10562604;28;20365;-76
2022/12/27 07:27:28;;;;;;;19.33;7.73;;;;;;;1.96;100.00;102051.06;10578096;28;20467;-70
2022/12/27 07:32:29;;;;;;;10.85;9.00;;;;;;;2.00;100.00;102047.81;10581383;28;20631;-75
2022/12/27 07:37:29;;;;;;;11.27;8.15;;;;;;;2.16;100.00;102062.44;10562972;28;20028;-76
2022/12/27 07:42:29;;;;;;;12.20;7.93;;;;;;;2.02;100.00;102053.94;10561273;28;20035;-77
2022/12/27 07:47:30;;;;;;;9.60;7.93;;;;;;;2.11;100.00;102081.09;10562291;28;20059;-76
2022/12/27 07:52:30;;;;;;;12.90;8.47;;;;;;;1.67;100.00;102036.06;10561719;28;20059;-76
2022/12/27 07:57:31;;;;;;;8.57;7.67;;;;;;;2.01;100.00;102109.28;10578529;28;20091;-76
2022/12/27 08:02:31;;;;;;;11.70;7.50;;;;;;;2.02;100.00;102115.56;10565844;27;20388;-77
2022/12/27 08:07:32;;;;;;;11.67;8.03;;;;;;;2.00;100.00;102109.47;10569397;27;20043;-77
2022/12/27 08:12:33;;;;;;;13.37;8.30;;;;;;;2.02;100.00;102119.13;10552645;27;20048;-77
2022/12/27 08:17:34;;;;;;;11.70;8.50;;;;;;;2.04;100.00;102127.13;10545816;28;20406;-77
2022/12/27 08:22:34;;;;;;;23.93;11.37;;;;;;;2.10;100.00;102121.03;10544517;28;20044;-76
2022/12/27 08:27:35;;;;;;;12.80;10.00;;;;;;;2.18;100.00;102095.72;10526124;28;20047;-77
2022/12/27 08:32:35;;;;;;;19.50;10.07;;;;;;;2.37;100.00;102124.44;10543321;28;20035;-77
2022/12/27 08:37:36;;;;;;;16.47;10.83;;;;;;;2.33;100.00;102120.34;10545851;28;20035;-77
2022/12/27 08:42:36;;;;;;;16.63;9.67;;;;;;;2.40;100.00;102133.13;10526942;28;20036;-76
2022/12/27 08:47:37;;;;;;;18.75;11.02;;;;;;;2.52;100.00;102128.19;10542313;28;20036;-77
2022/12/27 08:52:37;;;;;;;15.73;11.10;;;;;;;2.53;100.00;102132.59;10510371;28;20120;-76
2022/12/27 08:57:38;;;;;;;25.07;11.17;;;;;;;2.66;100.00;102155.69;10550335;27;20040;-73
2022/12/27 09:02:38;;;;;;;15.60;10.63;;;;;;;2.69;100.00;102147.19;10567632;27;20044;-78
2022/12/27 09:07:39;;;;;;;15.17;10.40;;;;;;;2.75;100.00;102168.25;10567465;28;20040;-77
2022/12/27 09:12:39;;;;;;;20.37;10.90;;;;;;;2.77;100.00;102172.53;10585638;27;20039;-77
2022/12/27 09:17:40;;;;;;;14.00;10.35;;;;;;;2.67;100.00;102168.25;10527137;28;20032;-76
2022/12/27 09:22:40;;;;;;;14.53;10.73;;;;;;;2.80;100.00;102179.50;10541957;28;20526;-78
2022/12/27 09:27:41;;;;;;;12.40;10.23;;;;;;;2.77;100.00;102174.38;10542017;28;20032;-76
2022/12/27 09:32:41;;;;;;;15.07;10.80;;;;;;;2.41;100.00;102104.06;10555211;28;20040;-77
2022/12/27 09:37:41;;;;;;;14.15;10.02;;;;;;;2.93;100.00;102185.25;10507939;28;20416;-76
2022/12/27 09:42:55;;;;;;;15.50;10.17;;;;;;;2.96;100.00;102182.19;10524335;28;20555;-77
2022/12/27 09:48:09;;;;;;;18.33;11.55;;;;;;;3.05;100.00;102184.91;10522886;28;20492;-77
2022/12/27 09:53:17;;;;;;;10.40;9.43;;;;;;;3.18;100.00;102180.66;10507267;28;20033;-77
2022/12/27 09:58:40;;;;;;;19.60;9.47;;;;;;;3.26;100.00;102177.03;10540754;28;20040;-76
2022/12/27 10:03:41;;;;;;;14.70;10.23;;;;;;;3.36;100.00;102176.84;10552533;28;20964;-78
2022/12/27 10:09:03;;;;;;;13.68;9.20;;;;;;;3.35;100.00;102169.69;10578879;27;20039;-76
2022/12/27 10:14:13;;;;;;;12.35;10.88;;;;;;;3.53;100.00;102193.97;10552435;27;20047;-77
2022/12/27 10:19:27;;;;;;;13.50;10.20;;;;;;;2.69;100.00;102039.28;10559725;28;20606;-77
2022/12/27 10:24:48;;;;;;;18.48;10.15;;;;;;;3.69;100.00;102198.53;10557790;27;20545;-77
2022/12/27 10:29:51;;;;;;;19.53;10.67;;;;;;;3.72;100.00;102188.13;10543192;28;20036;-78
2022/12/27 10:35:00;;;;;;;17.35;9.20;;;;;;;3.83;100.00;102198.63;10535734;28;20032;-77
2022/12/27 10:40:06;;;;;;;15.73;9.32;;;;;;;4.04;100.00;102205.34;10550031;28;20031;-77
2022/12/27 10:45:25;;;;;;;;;;;;;;;4.33;100.00;102217.44;10543688;28;20452;-77
2022/12/27 10:50:27;;;;;;;14.18;8.27;;;;;;;4.54;100.00;102211.34;10557371;28;19924;-77
2022/12/27 10:55:37;;;;;;;11.13;7.57;;;;;;;4.75;100.00;102205.19;10557728;27;20031;-76
2022/12/27 11:00:37;;;;;;;14.88;6.90;;;;;;;4.93;100.00;102200.25;10521902;28;20046;-75
2022/12/27 11:05:38;;;;;;;16.70;5.97;;;;;;;5.02;100.00;102199.19;10553944;28;20036;-77
2022/12/27 11:10:39;;;;;;;9.10;4.13;;;;;;;5.50;100.00;102208.91;10520155;28;20053;-77
2022/12/27 11:15:40;;;;;;;8.32;3.28;;;;;;;5.84;100.00;102211.91;10504746;28;20103;-77
2022/12/27 11:20:47;;;;;;;11.00;4.53;;;;;;;5.81;100.00;102176.78;10555056;28;20119;-77
2022/12/27 11:26:21;;;;;;;10.73;3.38;;;;;;;6.13;100.00;102199.25;10536647;28;20052;-77
2022/12/27 11:31:37;;;;;;;6.50;3.20;;;;;;;6.20;100.00;102188.41;10493968;28;20043;-77
2022/12/27 11:36:39;;;;;;;10.53;2.83;;;;;;;5.99;100.00;102194.69;10543078;28;20050;-77
2022/12/27 11:41:46;;;;;;;11.10;4.88;;;;;;;5.70;100.00;102201.84;10531856;28;20278;-78
2022/12/27 11:46:49;;;;;;;;;;;;;;;5.44;100.00;102194.13;10531778;28;20112;-78
2022/12/27 11:51:55;;;;;;;15.75;3.22;;;;;;;5.36;100.00;102189.59;10539665;28;19927;-78
2022/12/27 11:57:22;;;;;;;11.68;3.53;;;;;;;5.28;100.00;102191.59;10549792;27;20103;-79
2022/12/27 12:02:38;;;;;;;10.85;3.88;;;;;;;5.44;100.00;102181.31;10536700;27;20032;-77
2022/12/27 12:07:43;;;;;;;14.17;3.47;;;;;;;5.58;100.00;102185.09;10562343;27;20514;-77
2022/12/27 12:13:11;;;;;;;14.50;3.25;;;;;;;5.74;100.00;102172.25;10566382;27;20043;-78
2022/12/27 12:18:57;;;;;;;14.65;3.00;;;;;;;5.85;100.00;102169.88;10551378;27;20048;-79
2022/12/27 12:24:34;;;;;;;9.95;2.70;;;;;;;5.86;100.00;102166.09;10535588;28;20050;-78
2022/12/27 12:29:35;;;;;;;;;;;;;;;5.88;100.00;102162.34;10559402;27;20048;-78
2022/12/27 12:35:06;;;;;;;8.40;3.03;;;;;;;5.98;100.00;102168.38;10556433;27;19928;-79
2022/12/27 12:40:15;;;;;;;7.60;3.60;;;;;;;6.10;100.00;102165.97;10541889;27;20284;-78
2022/12/27 12:45:16;;;;;;;14.02;3.30;;;;;;;6.55;100.00;102162.06;10585891;27;20077;-79
2022/12/27 12:51:01;;;;;;;14.05;3.90;;;;;;;6.64;100.00;102149.94;10584099;27;20083;-79
2022/12/27 12:56:37;;;;;;;8.70;2.72;;;;;;;6.73;100.00;102138.84;10560773;27;20104;-78
2022/12/27 13:01:45;;;;;;;13.70;2.95;;;;;;;7.10;100.00;102137.66;10573395;27;20054;-79
2022/12/27 13:07:04;;;;;;;11.07;3.08;;;;;;;6.86;100.00;102138.94;10581368;27;20035;-78
2022/12/27 13:12:26;;;;;;;8.88;3.05;;;;;;;6.38;100.00;102130.53;10560840;27;20043;-78
2022/12/27 13:17:51;;;;;;;9.32;4.03;;;;;;;6.02;100.00;102125.97;10561357;27;20064;-79
2022/12/27 13:23:20;;;;;;;12.55;3.70;;;;;;;5.91;100.00;102110.00;10561227;28;20051;-79
2022/12/27 13:28:38;;;;;;;14.52;3.90;;;;;;;5.86;100.00;102116.06;10563282;27;20539;-78
2022/12/27 13:33:50;;;;;;;13.65;3.65;;;;;;;5.74;100.00;102090.28;10549218;27;20032;-79
2022/12/27 13:39:06;;;;;;;11.25;4.43;;;;;;;5.68;100.00;102097.34;10545795;27;20050;-78
2022/12/27 13:44:18;;;;;;;8.43;3.92;;;;;;;5.58;100.00;102096.81;10555973;28;20069;-78
2022/12/27 13:49:50;;;;;;;12.52;4.65;;;;;;;5.52;100.00;102083.91;10540492;28;20040;-79
2022/12/27 13:55:11;;;;;;;6.93;4.50;;;;;;;5.39;100.00;102079.97;10577781;27;20130;-77
2022/12/27 14:00:18;;;;;;;9.30;4.75;;;;;;;5.29;100.00;102073.94;10598728;27;20039;-78
2022/12/27 14:05:37;;;;;;;11.68;4.63;;;;;;;5.17;100.00;102078.22;10584589;27;20044;-77
2022/12/27 14:10:46;;;;;;;18.40;5.60;;;;;;;4.90;100.00;102061.47;10557500;27;20031;-78
2022/12/27 14:16:31;;;;;;;17.27;6.13;;;;;;;4.85;100.00;102064.75;10578343;27;20043;-77
2022/12/27 14:21:46;;;;;;;16.08;7.53;;;;;;;4.89;100.00;102067.13;10548072;27;20051;-77
2022/12/27 14:26:58;;;;;;;16.20;6.97;;;;;;;4.87;100.00;102071.91;10582936;27;20043;-80
2022/12/27 14:32:04;;;;;;;20.60;7.22;;;;;;;4.79;100.00;102075.56;10580971;27;20491;-76
2022/12/27 14:37:29;;;;;;;13.23;7.72;;;;;;;4.75;100.00;102053.25;10581236;27;20072;-77
2022/12/27 14:42:49;;;;;;;14.80;8.88;;;;;;;4.76;100.00;102065.03;10538115;28;20051;-77
2022/12/27 14:48:12;;;;;;;15.27;9.45;;;;;;;4.79;100.00;102070.09;10538370;28;20060;-77
2022/12/27 14:53:49;;;;;;;16.17;9.68;;;;;;;4.80;100.00;102072.66;10539460;28;20455;-76
2022/12/27 14:58:55;;;;;;;16.67;10.68;;;;;;;4.81;100.00;102052.50;10537193;27;20050;-77
2022/12/27 15:04:02;;;;;;;21.83;13.60;;;;;;;4.76;100.00;102054.13;10546432;28;20036;-77
2022/12/27 15:09:16;;;;;;;18.58;12.20;;;;;;;4.73;100.00;102043.56;10541294;28;20687;-76
2022/12/27 15:14:33;;;;;;;21.65;12.68;;;;;;;4.62;100.00;102048.44;10535883;28;20107;-76
2022/12/27 15:19:52;;;;;;;26.55;13.40;;;;;;;4.51;100.00;102046.19;10535548;27;20093;-76
2022/12/27 15:25:03;;;;;;;23.48;14.18;;;;;;;4.40;100.00;102043.91;10540356;27;20047;-78
2022/12/27 15:30:07;;;;;;;22.77;16.17;;;;;;;4.30;100.00;102044.19;10594447;27;20466;-76
2022/12/27 15:35:29;;;;;;;25.17;16.88;;;;;;;4.23;100.00;102049.50;10577239;27;20064;-77
2022/12/27 15:40:32;;;;;;;27.85;20.02;;;;;;;4.16;100.00;102037.63;10564680;27;20046;-76
2022/12/27 15:45:52;;;;;;;32.10;20.95;;;;;;;4.11;100.00;102044.66;10577592;27;20048;-76
2022/12/27 15:51:04;;;;;;;30.23;20.65;;;;;;;4.06;100.00;102036.19;10583901;27;20566;-77
2022/12/27 15:56:14;;;;;;;30.65;21.30;;;;;;;4.00;100.00;102035.88;10593476;27;20043;-77
2022/12/27 16:01:14;;;;;;;40.13;24.20;;;;;;;3.99;100.00;102039.66;10592488;27;20050;-78
2022/12/27 16:06:33;;;;;;;31.42;23.95;;;;;;;3.97;100.00;102035.41;10592517;27;20059;-78
2022/12/27 16:11:55;;;;;;;34.28;23.88;;;;;;;3.93;100.00;102032.22;10560435;28;20064;-78
2022/12/27 16:17:08;;;;;;;41.47;25.60;;;;;;;3.94;100.00;102030.31;10550841;28;20044;-78
2022/12/27 16:22:25;;;;;;;33.67;24.98;;;;;;;3.97;100.00;102010.88;10549300;28;20113;-77
2022/12/27 16:27:28;;;;;;;36.97;25.10;;;;;;;4.11;100.00;102012.78;10583365;27;20053;-77
2022/12/27 16:32:28;;;;;;;37.70;24.20;;;;;;;4.16;100.00;102007.66;10552673;27;20051;-78
2022/12/27 16:37:32;;;;;;;40.00;27.73;;;;;;;4.06;100.00;101998.88;10576127;27;20032;-78
2022/12/27 16:42:46;;;;;;;35.55;27.42;;;;;;;4.02;100.00;102000.28;10546579;28;20043;-77
2022/12/27 16:47:56;;;;;;;33.72;25.30;;;;;;;3.80;100.00;101962.00;10586057;27;20048;-77
2022/12/27 16:53:02;;;;;;;34.33;25.38;;;;;;;3.87;100.00;101985.78;10567053;27;20038;-77
2022/12/27 16:58:41;;;;;;;34.63;27.45;;;;;;;3.78;100.00;101985.84;10547780;27;20062;-78
2022/12/27 17:03:43;;;;;;;38.40;26.88;;;;;;;3.44;100.00;101934.53;10475122;28;20051;-77
2022/12/27 17:08:44;;;;;;;37.17;27.00;;;;;;;3.71;100.00;101975.84;10526688;28;20036;-78
2022/12/27 17:13:48;;;;;;;42.13;26.98;;;;;;;3.68;100.00;101963.47;10510346;27;20076;-77
2022/12/27 17:18:52;;;;;;;31.90;24.80;;;;;;;3.60;100.00;101968.97;10565235;27;20061;-77
2022/12/27 17:23:53;;;;;;;37.22;25.50;;;;;;;3.53;100.00;101954.34;10548912;28;20042;-77
2022/12/27 17:29:00;;;;;;;35.28;26.20;;;;;;;3.58;100.00;101954.69;10538593;27;20095;-77
2022/12/27 17:34:11;;;;;;;34.45;24.80;;;;;;;3.57;100.00;101944.81;10553981;27;20074;-79
2022/12/27 17:39:19;;;;;;;32.28;22.75;;;;;;;3.58;100.00;101913.84;10578082;27;20031;-78
2022/12/27 17:44:38;;;;;;;30.13;21.35;;;;;;;3.52;100.00;101887.34;10546539;27;20048;-77
2022/12/27 17:49:39;;;;;;;36.95;21.73;;;;;;;3.53;100.00;101878.13;10582589;27;20042;-77
2022/12/27 17:59:58;;;;;;;27.83;20.15;;;;;;;3.67;100.00;101871.03;10566366;27;20514;-77
2022/12/27 18:05:00;;;;;;;28.52;20.45;;;;;;;3.64;100.00;101877.69;10547040;27;20041;-77
2022/12/27 18:10:23;;;;;;;27.35;19.52;;;;;;;3.64;100.00;101883.16;10578901;27;20165;-78
2022/12/27 18:15:25;;;;;;;27.33;20.65;;;;;;;3.60;100.00;101879.94;10531832;28;20042;-76
2022/12/27 18:20:26;;;;;;;37.05;21.48;;;;;;;3.63;100.00;101876.00;10544264;28;20043;-77
2022/12/27 18:25:42;;;;;;;23.48;20.55;;;;;;;3.67;100.00;101874.59;10582076;27;20035;-76
2022/12/27 18:31:21;;;;;;;29.37;20.53;;;;;;;3.75;100.00;101870.97;10565482;27;20035;-76
2022/12/27 18:36:56;;;;;;;22.08;18.75;;;;;;;3.80;100.00;101857.63;10556284;27;20445;-76
2022/12/27 18:41:57;;;;;;;28.58;21.75;;;;;;;3.88;100.00;101854.81;10580630;28;20059;-77
2022/12/27 18:46:59;;;;;;;24.35;19.40;;;;;;;4.00;100.00;101841.59;10562223;28;20036;-77
2022/12/27 18:52:00;;;;;;;23.27;20.70;;;;;;;4.02;100.00;101839.53;10563467;27;20035;-77
2022/12/27 18:57:03;;;;;;;26.73;19.20;;;;;;;4.09;100.00;101828.72;10546368;28;20035;-76
2022/12/27 19:02:40;;;;;;;32.17;22.83;;;;;;;4.29;100.00;101842.63;10546296;28;20043;-77
2022/12/27 19:07:41;;;;;;;23.77;20.15;;;;;;;4.29;100.00;101829.00;10563002;28;20434;-77
2022/12/27 19:12:42;;;;;;;29.67;20.90;;;;;;;4.47;100.00;101825.88;10560851;28;20040;-77
2022/12/27 19:17:45;;;;;;;23.70;19.67;;;;;;;4.49;100.00;101802.00;10579509;28;20059;-77
2022/12/27 19:22:45;;;;;;;21.92;19.60;;;;;;;4.62;100.00;101807.59;10523343;28;20096;-77
2022/12/27 19:28:09;;;;;;;22.02;18.85;;;;;;;4.68;100.00;101795.06;10557426;28;20040;-77
2022/12/27 19:33:28;;;;;;;25.98;18.10;;;;;;;4.72;100.00;101799.94;10579374;28;20039;-77
2022/12/27 19:38:29;;;;;;;20.05;17.88;;;;;;;4.75;100.00;101795.97;10579337;28;20043;-77
2022/12/27 19:43:34;;;;;;;21.00;17.70;;;;;;;4.78;100.00;101776.50;10562355;28;20034;-78
2022/12/27 19:48:35;;;;;;;17.02;15.25;;;;;;;4.80;100.00;101771.69;10559514;28;20083;-77
2022/12/27 19:53:38;;;;;;;19.38;16.58;;;;;;;4.64;100.00;101746.34;10580999;28;20046;-78
2022/12/27 19:58:39;;;;;;;21.92;16.05;;;;;;;4.72;100.00;101752.72;10566866;27;20616;-78
2022/12/27 20:03:39;;;;;;;21.13;16.05;;;;;;;4.69;100.00;101747.66;10579349;27;20113;-78
2022/12/27 20:08:42;;;;;;;23.08;15.98;;;;;;;4.64;100.00;101708.16;10586170;27;20075;-77
2022/12/27 20:13:43;;;;;;;18.75;15.15;;;;;;;4.77;100.00;101723.81;10570124;27;20042;-78
2022/12/27 20:18:43;;;;;;;19.85;15.68;;;;;;;4.78;100.00;101713.75;10586139;27;20046;-77
2022/12/27 20:23:44;;;;;;;17.27;14.63;;;;;;;4.83;100.00;101703.09;10539958;27;20032;-77
2022/12/27 20:28:45;;;;;;;15.98;14.30;;;;;;;4.89;100.00;101705.03;10585295;27;20329;-78
2022/12/27 20:33:52;;;;;;;18.05;14.13;;;;;;;4.94;100.00;101699.84;10555214;28;20035;-78
2022/12/27 20:38:52;;;;;;;21.48;14.50;;;;;;;5.01;100.00;101698.00;10568838;27;20106;-78
2022/12/27 20:43:56;;;;;;;18.02;13.13;;;;;;;5.08;100.00;101697.22;10567180;27;20036;-77
2022/12/27 20:48:57;;;;;;;14.93;13.25;;;;;;;5.10;100.00;101686.94;10584160;27;20078;-77
2022/12/27 20:53:58;;;;;;;19.15;13.57;;;;;;;5.15;100.00;101681.75;10567818;28;20471;-77
2022/12/27 20:59:00;;;;;;;19.25;12.07;;;;;;;5.19;100.00;101659.31;10585147;27;20032;-77
2022/12/27 21:04:00;;;;;;;13.20;11.00;;;;;;;5.15;100.00;101624.44;10536029;27;20028;-77
2022/12/27 21:09:01;;;;;;;13.35;10.93;;;;;;;5.14;100.00;101625.44;10565092;27;20494;-78
2022/12/27 21:14:02;;;;;;;13.35;10.40;;;;;;;5.23;100.00;101625.09;10576081;27;20040;-78
2022/12/27 21:19:04;;;;;;;12.85;10.50;;;;;;;5.20;100.00;101619.19;10542391;28;20115;-77
2022/12/27 21:24:05;;;;;;;12.50;10.45;;;;;;;5.25;100.00;101616.72;10549118;27;20065;-77
2022/12/27 21:29:08;;;;;;;13.98;9.35;;;;;;;5.21;100.00;101612.72;10564393;27;20047;-77
2022/12/27 21:34:08;;;;;;;14.70;9.30;;;;;;;5.18;100.00;101596.72;10580570;27;20032;-77
2022/12/27 21:39:09;;;;;;;13.00;9.90;;;;;;;4.75;100.00;101545.00;10563062;27;20055;-78
2022/12/27 21:44:09;;;;;;;18.38;10.73;;;;;;;5.03;100.00;101589.47;10563618;27;25466;-79
2022/12/27 21:49:11;;;;;;;18.60;8.70;;;;;;;5.01;100.00;101586.13;10560518;27;20597;-76
2022/12/27 21:54:12;;;;;;;13.88;9.02;;;;;;;4.99;100.00;101574.56;10580072;27;20077;-77
2022/12/27 21:59:13;;;;;;;16.52;8.63;;;;;;;4.91;100.00;101574.72;10563448;27;20035;-78
2022/12/27 22:04:14;;;;;;;12.40;8.75;;;;;;;4.83;100.00;101558.50;10560292;27;20049;-78
2022/12/27 22:09:15;;;;;;;12.63;8.80;;;;;;;4.87;100.00;101565.22;10560856;28;20048;-76
2022/12/27 22:14:15;;;;;;;10.88;9.38;;;;;;;4.87;100.00;101558.94;10560535;27;20043;-77
2022/12/27 22:19:16;;;;;;;9.48;8.48;;;;;;;4.82;100.00;101535.00;10577846;28;20039;-77
2022/12/27 22:24:18;;;;;;;11.50;8.60;;;;;;;4.88;100.00;101520.56;10561203;28;20110;-76
2022/12/27 22:29:20;;;;;;;13.10;7.63;;;;;;;4.92;100.00;101513.66;10577950;27;20073;-78
2022/12/27 22:34:21;;;;;;;9.52;7.38;;;;;;;4.93;100.00;101512.59;10547299;28;20055;-78
2022/12/27 22:39:21;;;;;;;12.00;7.97;;;;;;;4.87;100.00;101499.75;10561220;28;20031;-78
2022/12/27 22:44:22;;;;;;;10.00;7.47;;;;;;;4.83;100.00;101471.19;10580213;27;20047;-78
2022/12/27 22:49:23;;;;;;;10.35;6.22;;;;;;;4.93;100.00;101479.84;10545590;28;20040;-77
2022/12/27 22:54:24;;;;;;;10.15;7.10;;;;;;;4.90;100.00;101471.22;10543944;27;20081;-74
2022/12/27 22:59:25;;;;;;;10.93;6.40;;;;;;;4.90;100.00;101452.97;10576902;28;20590;-78
2022/12/27 23:04:25;;;;;;;9.73;6.40;;;;;;;4.89;100.00;101464.94;10560344;28;20399;-77
2022/12/27 23:09:27;;;;;;;8.10;6.43;;;;;;;4.91;100.00;101462.84;10578241;28;20032;-77
2022/12/27 23:14:27;;;;;;;13.50;7.30;;;;;;;4.80;100.00;101466.16;10576401;28;20069;-77
2022/12/27 23:19:28;;;;;;;12.68;8.43;;;;;;;4.66;100.00;101443.41;10560013;28;20034;-76
2022/12/27 23:24:28;;;;;;;11.25;8.90;;;;;;;4.54;100.00;101423.19;10541169;28;20310;-75
2022/12/27 23:29:29;;;;;;;12.38;9.30;;;;;;;4.54;100.00;101434.09;10560582;28;20073;-78
2022/12/27 23:34:30;;;;;;;14.37;9.70;;;;;;;4.43;100.00;101417.25;10567192;27;20047;-79
2022/12/27 23:39:30;;;;;;;12.55;9.52;;;;;;;4.46;100.00;101410.56;10569199;27;20035;-78
2022/12/27 23:44:31;;;;;;;13.88;10.48;;;;;;;4.43;100.00;101413.69;10576694;28;20058;-78
2022/12/27 23:49:31;;;;;;;11.20;10.07;;;;;;;4.41;100.00;101410.34;10587183;27;20052;-78
2022/12/27 23:54:32;;;;;;;15.52;9.55;;;;;;;4.42;100.00;101388.31;10557849;28;20071;-78
2022/12/27 23:59:32;;;;;;;13.35;10.15;;;;;;;4.28;100.00;101367.50;10553521;27;20039;-77
